Time;durP1;ratioP1;P1;durP2;ratioP2;P2;SDS_P1;SDS_P2;PMS_P1;PMS_P2;Temp;Humidity;BMP_temperature;BMP_pressure;BME280_temperature;BME280_humidity;BME280_pressure;Samples;Min_cycle;Max_cycle;Signal;HPM_P1;HPM_P2
2023/01/10 00:00:05;;;;;;;;;;;;;;;10.34;73.89;101287.09;5074352;28;20385;-83
2023/01/10 00:02:30;;;;;;;;;;;;;;;10.34;74.08;101289.69;5070897;28;20357;-84
2023/01/10 00:04:56;;;;;;;;;;;;;;;10.33;74.17;101287.91;5085739;28;20302;-84
2023/01/10 00:07:21;;;;;;;;;;;;;;;10.34;73.79;101280.16;5070812;28;20370;-84
2023/01/10 00:09:46;;;;;;;;;;;;;;;10.35;74.11;101274.13;5070355;28;19952;-84
2023/01/10 00:15:07;;;;;;;;;;;;;;;10.34;73.94;101274.94;4989583;28;19949;-85
2023/01/10 00:17:32;;;;;;;;;;;;;;;10.32;73.85;101271.31;5070929;28;19959;-84
2023/01/10 00:19:57;;;;;;;;;;;;;;;10.30;74.31;101266.81;5071724;28;19924;-85
2023/01/10 00:22:24;;;;;;;;;;;;;;;10.27;73.92;101262.28;5070697;28;20426;-85
2023/01/10 00:24:50;;;;;;;;;;;;;;;10.29;74.10;101262.38;5070389;28;20370;-85
2023/01/10 00:27:21;;;;;;;;;;;;;;;10.33;74.23;101261.78;5052822;28;19920;-83
2023/01/10 00:29:46;;;;;;;;;;;;;;;10.29;74.06;101249.31;5077404;28;20397;-83
2023/01/10 00:32:12;;;;;;;;;;;;;;;10.24;74.03;101243.78;5093188;28;20017;-83
2023/01/10 00:34:37;;;;;;;;;;;;;;;10.29;73.92;101245.03;5069754;28;19969;-83
2023/01/10 00:37:02;;;;;;;;;;;;;;;10.26;73.95;101249.13;5086109;28;19916;-84
2023/01/10 00:39:28;;;;;;;;;;;;;;;10.30;74.12;101245.94;5070457;28;20301;-85
2023/01/10 00:44:37;;;;;;;;;;;;;;;10.31;73.97;101240.81;5086685;28;19927;-83
2023/01/10 00:47:03;;;;;;;;;;;;;;;10.28;74.07;101232.72;5073273;28;19916;-83
2023/01/10 00:49:28;;;;;;;;;;;;;;;10.24;74.17;101233.34;5065773;28;20453;-83
2023/01/10 00:51:58;;;;;;;;;;;;;;;10.25;74.23;101229.94;5070462;28;19913;-83
2023/01/10 00:54:24;;;;;;;;;;;;;;;10.24;74.10;101222.91;5070349;28;20015;-83
2023/01/10 00:56:49;;;;;;;;;;;;;;;10.29;73.60;101225.84;5085721;28;20007;-83
2023/01/10 00:59:17;;;;;;;;;;;;;;;10.28;73.60;101221.41;5052356;28;20397;-85
2023/01/10 01:01:43;;;;;;;;;;;;;;;10.23;74.18;101221.13;5070646;28;19913;-84
2023/01/10 01:04:08;;;;;;;;;;;;;;;10.28;73.75;101216.19;5076513;28;19927;-84
2023/01/10 01:06:34;;;;;;;;;;;;;;;10.23;73.69;101209.78;5089139;28;20309;-84
2023/01/10 01:08:59;;;;;;;;;;;;;;;10.19;73.81;101203.47;5071648;28;19966;-84
2023/01/10 01:11:25;;;;;;;;;;;;;;;10.20;73.89;101205.25;5071879;28;19920;-84
2023/01/10 01:13:50;;;;;;;;;;;;;;;10.17;73.91;101208.56;5081269;28;19920;-84
2023/01/10 01:16:16;;;;;;;;;;;;;;;10.16;73.98;101206.78;5092256;28;19920;-84
2023/01/10 01:18:41;;;;;;;;;;;;;;;10.20;74.10;101192.19;5090433;28;20019;-84
2023/01/10 01:21:07;;;;;;;;;;;;;;;10.22;73.61;101189.69;5087369;28;20463;-84
2023/01/10 01:23:33;;;;;;;;;;;;;;;10.14;73.92;101184.03;5072306;28;20611;-84
2023/01/10 01:25:59;;;;;;;;;;;;;;;10.15;74.29;101183.19;5091907;28;20004;-84
2023/01/10 01:28:24;;;;;;;;;;;;;;;10.19;73.77;101186.09;5072233;28;20007;-83
2023/01/10 01:30:50;;;;;;;;;;;;;;;10.15;74.07;101184.09;5088965;28;20015;-84
2023/01/10 01:33:19;;;;;;;;;;;;;;;10.14;73.90;101179.69;5072773;28;20386;-84
2023/01/10 01:35:45;;;;;;;;;;;;;;;10.19;74.03;101169.53;5071393;28;19969;-84
2023/01/10 01:38:11;;;;;;;;;;;;;;;10.13;73.97;101185.69;5087270;28;20578;-84
2023/01/10 01:40:40;;;;;;;;;;;;;;;10.13;74.12;101175.25;5088048;28;20008;-84
2023/01/10 01:43:26;;;;;;;;;;;;;;;10.13;74.18;101179.59;5088284;28;19927;-83
2023/01/10 01:45:51;;;;;;;;;;;;;;;10.16;73.62;101170.25;5072664;28;19924;-84
2023/01/10 01:48:21;;;;;;;;;;;;;;;10.13;74.06;101176.97;5072488;28;19916;-84
2023/01/10 01:51:04;;;;;;;;;;;;;;;10.11;73.92;101161.22;5073086;28;19981;-84
2023/01/10 01:53:31;;;;;;;;;;;;;;;10.13;74.14;101149.16;5075705;28;19912;-85
2023/01/10 01:55:58;;;;;;;;;;;;;;;10.13;73.94;101154.38;5088799;28;19920;-84
2023/01/10 01:58:26;;;;;;;;;;;;;;;10.15;74.04;101162.31;5087096;28;20367;-84
2023/01/10 02:00:51;;;;;;;;;;;;;;;10.15;73.75;101157.09;5088708;28;20476;-84
2023/01/10 02:03:16;;;;;;;;;;;;;;;10.12;73.75;101151.72;5087891;28;19997;-85
2023/01/10 02:05:42;;;;;;;;;;;;;;;10.12;73.98;101136.94;5088080;28;19920;-84
2023/01/10 02:08:07;;;;;;;;;;;;;;;10.12;74.03;101151.72;5071346;28;20460;-84
2023/01/10 02:10:33;;;;;;;;;;;;;;;10.09;73.81;101152.41;5072719;28;19916;-85
2023/01/10 02:13:00;;;;;;;;;;;;;;;10.11;74.02;101153.38;5073478;28;19920;-84
2023/01/10 02:15:25;;;;;;;;;;;;;;;10.12;73.85;101154.31;5086326;28;19942;-85
2023/01/10 02:17:51;;;;;;;;;;;;;;;10.11;73.80;101147.28;5083657;28;20386;-84
2023/01/10 02:20:17;;;;;;;;;;;;;;;10.09;74.18;101141.06;5070529;28;20424;-84
2023/01/10 02:22:54;;;;;;;;;;;;;;;10.08;74.18;101139.28;5040987;28;19913;-84
2023/01/10 02:25:26;;;;;;;;;;;;;;;10.09;73.97;101136.72;5079519;28;19923;-84
2023/01/10 02:27:51;;;;;;;;;;;;;;;10.06;73.89;101141.78;5073598;28;20511;-84
2023/01/10 02:30:35;;;;;;;;;;;;;;;10.07;74.05;101137.44;5072605;28;19963;-84
2023/01/10 02:33:39;;;;;;;;;;;;;;;10.08;74.17;101140.16;5071919;28;19975;-84
2023/01/10 02:36:04;;;;;;;;;;;;;;;9.94;73.77;101110.59;5030309;28;19928;-84
2023/01/10 02:38:30;;;;;;;;;;;;;;;10.07;73.82;101137.44;5019901;28;20038;-84
2023/01/10 02:41:14;;;;;;;;;;;;;;;10.05;74.31;101139.06;5046507;28;19916;-84
2023/01/10 02:44:02;;;;;;;;;;;;;;;10.04;74.07;101138.19;5084631;28;19923;-85
2023/01/10 02:46:28;;;;;;;;;;;;;;;10.02;74.17;101124.13;5058538;28;19912;-84
2023/01/10 02:48:54;;;;;;;;;;;;;;;10.04;74.16;101134.66;5056155;28;19920;-85
2023/01/10 02:51:24;;;;;;;;;;;;;;;10.01;74.19;101134.47;5087202;28;19912;-84
2023/01/10 02:53:51;;;;;;;;;;;;;;;10.04;74.01;101132.06;5085364;28;19989;-84
2023/01/10 02:56:32;;;;;;;;;;;;;;;10.04;73.89;101135.56;5067096;28;20309;-85
2023/01/10 02:58:57;;;;;;;;;;;;;;;10.01;74.16;101127.53;5071860;28;20390;-84
2023/01/10 03:01:55;;;;;;;;;;;;;;;10.01;74.21;101137.97;5063537;28;19998;-85
2023/01/10 03:04:23;;;;;;;;;;;;;;;10.03;73.90;101132.84;5052496;28;19951;-85
2023/01/10 03:07:03;;;;;;;;;;;;;;;10.02;73.93;101129.34;5067500;28;19926;-84
2023/01/10 03:09:33;;;;;;;;;;;;;;;10.03;74.07;101132.84;5085880;28;20537;-84
2023/01/10 03:12:01;;;;;;;;;;;;;;;10.01;74.14;101131.84;5058996;28;19912;-85
2023/01/10 03:14:27;;;;;;;;;;;;;;;10.03;73.75;101130.25;5077749;28;19917;-84
2023/01/10 03:16:56;;;;;;;;;;;;;;;10.03;73.88;101140.69;5086585;28;19920;-84
2023/01/10 03:19:22;;;;;;;;;;;;;;;10.00;73.97;101138.78;5069796;28;19924;-83
2023/01/10 03:21:48;;;;;;;;;;;;;;;10.02;74.00;101133.69;5081263;28;20027;-83
2023/01/10 03:24:17;;;;;;;;;;;;;;;10.00;74.19;101128.34;5065784;28;20458;-83
2023/01/10 03:26:42;;;;;;;;;;;;;;;9.99;74.10;101116.13;5076760;28;19962;-83
2023/01/10 03:29:09;;;;;;;;;;;;;;;9.99;73.86;101113.53;5074226;28;20408;-83
2023/01/10 03:31:35;;;;;;;;;;;;;;;10.00;74.02;101110.09;5083471;28;19981;-84
2023/01/10 03:34:01;;;;;;;;;;;;;;;9.98;73.87;101106.47;5085497;28;20412;-83
2023/01/10 03:36:34;;;;;;;;;;;;;;;9.97;74.16;101099.47;5085185;28;19916;-83
2023/01/10 03:39:19;;;;;;;;;;;;;;;9.98;73.73;101107.38;5091643;28;19927;-84
2023/01/10 03:41:50;;;;;;;;;;;;;;;9.96;74.24;101106.38;5069009;28;19939;-84
2023/01/10 03:47:03;;;;;;;;;;;;;;;9.95;73.83;101101.97;5068218;28;19924;-83
2023/01/10 03:49:29;;;;;;;;;;;;;;;9.95;74.11;101106.31;5058617;28;19920;-84
2023/01/10 03:51:55;;;;;;;;;;;;;;;9.95;73.98;101099.38;5052206;28;20045;-83
2023/01/10 03:54:20;;;;;;;;;;;;;;;9.96;73.75;101110.72;5085787;28;20007;-84
2023/01/10 03:56:46;;;;;;;;;;;;;;;9.93;74.20;101111.41;5069747;28;20011;-84
2023/01/10 03:59:12;;;;;;;;;;;;;;;9.94;73.95;101101.88;5073271;28;20077;-83
2023/01/10 04:01:37;;;;;;;;;;;;;;;9.95;74.15;101095.88;5057367;28;20401;-84
2023/01/10 04:04:03;;;;;;;;;;;;;;;9.95;74.10;101082.84;5085273;28;20417;-83
2023/01/10 04:06:29;;;;;;;;;;;;;;;9.92;74.03;101093.06;5069411;28;19920;-83
2023/01/10 04:08:54;;;;;;;;;;;;;;;9.93;74.30;101101.00;5085545;28;20542;-85
2023/01/10 04:11:21;;;;;;;;;;;;;;;9.90;74.25;101106.00;5058442;28;19920;-84
2023/01/10 04:13:47;;;;;;;;;;;;;;;9.92;74.25;101099.16;5085502;28;19942;-84
2023/01/10 04:16:12;;;;;;;;;;;;;;;9.92;74.03;101093.94;5070494;28;19923;-85
2023/01/10 04:18:38;;;;;;;;;;;;;;;9.94;74.00;101099.28;5083022;28;19928;-85
2023/01/10 04:21:03;;;;;;;;;;;;;;;9.90;73.80;101095.56;5070461;28;19916;-85
2023/01/10 04:23:29;;;;;;;;;;;;;;;9.93;73.81;101092.28;5051745;28;19916;-82
2023/01/10 04:25:54;;;;;;;;;;;;;;;9.92;74.17;101098.28;5069621;28;20411;-82
2023/01/10 04:28:19;;;;;;;;;;;;;;;9.89;74.19;101098.09;5069538;28;20381;-83
2023/01/10 04:30:45;;;;;;;;;;;;;;;9.87;74.22;101095.38;5077550;28;20433;-85
2023/01/10 04:33:11;;;;;;;;;;;;;;;9.88;74.18;101088.47;5080258;28;20417;-84
2023/01/10 04:35:36;;;;;;;;;;;;;;;9.92;73.87;101095.66;5062145;28;19969;-84
2023/01/10 04:38:02;;;;;;;;;;;;;;;9.92;74.10;101082.63;5061333;28;19920;-85
2023/01/10 04:40:27;;;;;;;;;;;;;;;9.89;73.87;101079.84;5079801;28;20279;-85
2023/01/10 04:42:53;;;;;;;;;;;;;;;9.94;73.84;101083.63;5084993;28;20065;-84
2023/01/10 04:45:20;;;;;;;;;;;;;;;9.95;73.64;101090.66;5088908;28;20385;-83
2023/01/10 04:47:54;;;;;;;;;;;;;;;9.94;73.85;101075.78;5073070;28;20021;-83
2023/01/10 04:50:20;;;;;;;;;;;;;;;9.87;74.16;101077.13;5082832;28;19919;-84
2023/01/10 04:52:45;;;;;;;;;;;;;;;9.90;74.08;101079.91;5073997;28;19912;-82
2023/01/10 04:55:11;;;;;;;;;;;;;;;9.86;73.83;101079.63;5089757;28;19917;-85
2023/01/10 04:57:36;;;;;;;;;;;;;;;9.85;74.25;101078.75;5093217;28;20356;-84
2023/01/10 05:00:02;;;;;;;;;;;;;;;9.92;73.84;101067.88;5084875;28;19917;-85
2023/01/10 05:02:27;;;;;;;;;;;;;;;9.87;74.14;101071.91;5104789;28;19916;-83
2023/01/10 05:04:53;;;;;;;;;;;;;;;9.87;73.76;101082.34;5076487;28;19920;-84
2023/01/10 05:07:18;;;;;;;;;;;;;;;9.89;74.13;101074.63;5075320;28;20462;-83
2023/01/10 05:09:44;;;;;;;;;;;;;;;9.84;74.12;101073.41;5082805;28;20386;-84
2023/01/10 05:12:09;;;;;;;;;;;;;;;9.86;73.97;101069.19;5089146;28;19916;-84
2023/01/10 05:14:34;;;;;;;;;;;;;;;9.83;74.16;101071.63;5076637;28;20380;-84
2023/01/10 05:17:00;;;;;;;;;;;;;;;9.81;74.31;101066.31;5096962;28;20389;-85
2023/01/10 05:19:25;;;;;;;;;;;;;;;9.84;73.86;101068.22;5082947;28;20282;-85
2023/01/10 05:21:51;;;;;;;;;;;;;;;9.86;73.96;101058.78;5057676;28;19924;-84
2023/01/10 05:24:16;;;;;;;;;;;;;;;9.86;74.02;101050.94;5082533;28;19939;-84
2023/01/10 05:26:42;;;;;;;;;;;;;;;9.84;74.07;101055.16;5088227;28;19924;-83
2023/01/10 05:29:09;;;;;;;;;;;;;;;9.84;73.95;101044.72;5061979;28;19916;-86
2023/01/10 05:31:35;;;;;;;;;;;;;;;9.82;73.88;101039.44;5088671;28;19912;-84
2023/01/10 05:34:00;;;;;;;;;;;;;;;9.83;73.99;101037.72;5073942;28;19927;-83
2023/01/10 05:36:25;;;;;;;;;;;;;;;9.83;74.20;101042.94;5076157;28;20374;-83
2023/01/10 05:38:51;;;;;;;;;;;;;;;9.81;74.04;101048.06;5075108;28;20535;-84
2023/01/10 05:41:16;;;;;;;;;;;;;;;9.82;74.24;101034.22;5100952;28;19916;-83
2023/01/10 05:43:42;;;;;;;;;;;;;;;9.82;74.15;101036.84;5075514;28;19912;-83
2023/01/10 05:46:07;;;;;;;;;;;;;;;9.91;73.59;101036.50;5102579;28;20404;-83
2023/01/10 05:48:33;;;;;;;;;;;;;;;9.88;74.11;101037.19;5086135;28;19918;-84
2023/01/10 05:50:58;;;;;;;;;;;;;;;9.92;73.99;101038.28;5073863;28;20003;-84
2023/01/10 05:53:23;;;;;;;;;;;;;;;9.93;73.51;101042.69;5088269;28;20283;-84
2023/01/10 05:55:53;;;;;;;;;;;;;;;9.89;73.86;101043.31;5083027;28;20509;-84
2023/01/10 05:58:18;;;;;;;;;;;;;;;9.92;73.93;101052.22;5054254;28;20363;-85
2023/01/10 06:00:44;;;;;;;;;;;;;;;9.92;73.99;101048.72;5072092;28;19916;-85
2023/01/10 06:03:09;;;;;;;;;;;;;;;9.97;73.68;101044.69;5094704;28;19919;-85
2023/01/10 06:05:34;;;;;;;;;;;;;;;9.99;73.55;101043.06;5072688;28;20431;-85
2023/01/10 06:08:00;;;;;;;;;;;;;;;10.01;73.47;101043.16;5076842;28;20368;-85
2023/01/10 06:10:25;;;;;;;;;;;;;;;9.94;73.83;101042.78;5072919;28;20393;-84
2023/01/10 06:12:51;;;;;;;;;;;;;;;9.97;73.73;101040.38;5073771;28;20630;-83
2023/01/10 06:15:16;;;;;;;;;;;;;;;9.95;73.59;101036.75;5074411;28;19912;-83
2023/01/10 06:17:43;;;;;;;;;;;;;;;9.98;73.49;101030.81;5071656;28;19999;-85
2023/01/10 06:20:09;;;;;;;;;;;;;;;9.97;73.48;101042.97;5073415;28;19921;-84
2023/01/10 06:22:35;;;;;;;;;;;;;;;9.94;73.83;101034.06;5087993;28;20358;-84
2023/01/10 06:25:00;;;;;;;;;;;;;;;9.95;73.51;101034.16;5062247;28;20007;-84
2023/01/10 06:27:25;;;;;;;;;;;;;;;9.96;73.80;101035.03;5075594;28;20405;-83
2023/01/10 06:29:51;;;;;;;;;;;;;;;9.98;73.85;101041.25;5062805;28;20583;-83
2023/01/10 06:32:16;;;;;;;;;;;;;;;9.99;73.51;101046.59;5073976;28;20424;-84
2023/01/10 06:34:42;;;;;;;;;;;;;;;9.96;73.81;101043.78;5071405;28;19924;-84
2023/01/10 06:37:07;;;;;;;;;;;;;;;9.96;73.77;101054.19;5071266;28;20382;-84
2023/01/10 06:39:32;;;;;;;;;;;;;;;9.97;73.46;101056.03;5082626;28;20407;-84
2023/01/10 06:41:58;;;;;;;;;;;;;;;9.97;73.82;101062.97;5071710;28;19927;-84
2023/01/10 06:44:23;;;;;;;;;;;;;;;9.98;73.71;101064.75;5053706;28;20393;-84
2023/01/10 06:46:49;;;;;;;;;;;;;;;10.01;73.43;101058.81;5067008;28;20325;-85
2023/01/10 06:49:14;;;;;;;;;;;;;;;9.98;73.49;101064.75;5073358;28;20329;-85
2023/01/10 06:51:39;;;;;;;;;;;;;;;10.01;73.64;101067.53;5080684;28;20444;-85
2023/01/10 06:54:05;;;;;;;;;;;;;;;9.97;73.56;101063.84;5071707;28;19913;-86
2023/01/10 06:56:30;;;;;;;;;;;;;;;9.99;73.46;101064.84;5080016;28;19912;-84
2023/01/10 06:58:56;;;;;;;;;;;;;;;9.92;74.01;101064.38;5075707;28;20015;-84
2023/01/10 07:01:21;;;;;;;;;;;;;;;9.84;73.69;101049.94;5071415;28;20011;-86
2023/01/10 07:03:47;;;;;;;;;;;;;;;9.91;74.03;101060.84;5072088;28;20366;-85
2023/01/10 07:06:12;;;;;;;;;;;;;;;10.00;73.87;101063.13;5086846;28;19913;-85
2023/01/10 07:08:39;;;;;;;;;;;;;;;9.98;73.57;101059.53;5087186;28;19961;-85
2023/01/10 07:11:05;;;;;;;;;;;;;;;9.98;73.59;101051.69;5070757;28;20404;-85
2023/01/10 07:13:30;;;;;;;;;;;;;;;9.97;73.73;101044.69;5086777;28;19912;-85
2023/01/10 07:16:09;;;;;;;;;;;;;;;9.86;74.07;101045.72;5087457;28;19919;-85
2023/01/10 07:18:34;;;;;;;;;;;;;;;9.80;74.05;101043.66;5063730;28;20359;-86
2023/01/10 07:21:00;;;;;;;;;;;;;;;9.84;74.26;101039.50;5069268;28;20401;-85
2023/01/10 07:23:25;;;;;;;;;;;;;;;9.83;74.18;101042.94;5090679;28;19912;-85
2023/01/10 07:25:51;;;;;;;;;;;;;;;9.81;74.23;101036.72;5086941;28;19917;-85
2023/01/10 07:28:16;;;;;;;;;;;;;;;9.83;74.30;101027.28;5086749;28;19913;-86
2023/01/10 07:30:42;;;;;;;;;;;;;;;9.82;74.34;101025.47;5071191;28;19923;-85
2023/01/10 07:33:07;;;;;;;;;;;;;;;9.73;74.33;101016.28;5075606;28;20386;-86
2023/01/10 07:35:32;;;;;;;;;;;;;;;9.79;74.41;101021.88;5069703;28;19921;-86
2023/01/10 07:37:59;;;;;;;;;;;;;;;9.80;74.51;101020.19;5053269;28;20420;-86
2023/01/10 07:40:25;;;;;;;;;;;;;;;9.81;74.14;101027.19;5100118;28;19917;-85
2023/01/10 07:42:55;;;;;;;;;;;;;;;9.71;74.46;101023.09;5086604;28;19943;-87
2023/01/10 07:45:20;;;;;;;;;;;;;;;9.74;74.96;101030.25;5069585;28;19943;-85
2023/01/10 07:47:45;;;;;;;;;;;;;;;9.73;74.48;101038.84;5086635;28;19916;-85
2023/01/10 07:50:11;;;;;;;;;;;;;;;9.75;74.57;101047.69;5073103;28;20366;-85
2023/01/10 07:52:37;;;;;;;;;;;;;;;9.70;74.52;101044.78;5086111;28;20400;-85
2023/01/10 07:55:03;;;;;;;;;;;;;;;9.72;74.50;101052.72;5086392;28;19969;-85
2023/01/10 07:57:28;;;;;;;;;;;;;;;9.73;74.71;101044.06;5091612;28;20492;-85
2023/01/10 07:59:54;;;;;;;;;;;;;;;9.71;74.56;101049.19;5086368;28;19927;-85
2023/01/10 08:02:19;;;;;;;;;;;;;;;9.67;74.70;101044.63;5070964;28;20313;-85
2023/01/10 08:04:44;;;;;;;;;;;;;;;9.67;74.60;101047.22;5070833;28;20389;-85
2023/01/10 08:07:10;;;;;;;;;;;;;;;9.67;74.97;101044.63;5095669;28;19912;-85
2023/01/10 08:09:35;;;;;;;;;;;;;;;9.66;75.15;101047.13;5070837;28;19913;-85
2023/01/10 08:12:01;;;;;;;;;;;;;;;9.62;75.05;101035.59;5069282;28;20401;-86
2023/01/10 08:14:26;;;;;;;;;;;;;;;9.63;75.21;101045.22;5071175;28;20377;-86
2023/01/10 08:16:51;;;;;;;;;;;;;;;9.67;74.78;101042.00;5073069;28;19916;-86
2023/01/10 08:19:17;;;;;;;;;;;;;;;9.66;75.10;101044.50;5090085;28;20515;-85
2023/01/10 08:21:42;;;;;;;;;;;;;;;9.66;74.86;101047.13;5092487;28;20381;-86
2023/01/10 08:24:08;;;;;;;;;;;;;;;9.67;74.80;101041.09;5092614;28;19916;-85
2023/01/10 08:26:33;;;;;;;;;;;;;;;9.68;75.12;101037.69;5090346;28;19916;-85
2023/01/10 08:28:59;;;;;;;;;;;;;;;9.64;74.99;101039.19;5081250;28;20581;-85
2023/01/10 08:31:25;;;;;;;;;;;;;;;9.69;75.09;101021.22;5091907;28;19919;-85
2023/01/10 08:33:50;;;;;;;;;;;;;;;9.69;75.26;101039.47;5080533;28;19920;-85
2023/01/10 08:36:16;;;;;;;;;;;;;;;9.71;75.11;101035.25;5083334;28;20494;-85
2023/01/10 08:38:41;;;;;;;;;;;;;;;9.68;75.24;101025.53;5083112;28;19976;-85
2023/01/10 08:41:07;;;;;;;;;;;;;;;9.71;75.15;101032.66;5076371;28;19963;-85
2023/01/10 08:43:33;;;;;;;;;;;;;;;9.68;75.22;101041.19;5090028;28;20385;-85
2023/01/10 08:45:59;;;;;;;;;;;;;;;9.69;74.90;101037.75;5090012;28;19916;-85
2023/01/10 08:48:24;;;;;;;;;;;;;;;9.68;75.29;101040.28;5073891;28;20506;-84
2023/01/10 08:50:50;;;;;;;;;;;;;;;9.66;75.03;101040.19;5074212;28;20385;-85
2023/01/10 08:53:15;;;;;;;;;;;;;;;9.67;75.40;101041.09;5073862;28;20336;-85
2023/01/10 08:55:41;;;;;;;;;;;;;;;9.65;75.44;101037.47;5073879;28;19912;-85
2023/01/10 08:58:06;;;;;;;;;;;;;;;9.70;75.13;101023.03;5073884;28;19917;-86
2023/01/10 09:00:32;;;;;;;;;;;;;;;9.70;74.69;101031.75;5089629;28;20294;-86
2023/01/10 09:02:57;;;;;;;;;;;;;;;9.69;75.23;101029.03;5074147;28;19942;-86
2023/01/10 09:05:24;;;;;;;;;;;;;;;9.72;74.79;101017.09;5072495;28;20381;-86
2023/01/10 09:07:50;;;;;;;;;;;;;;;9.68;74.84;101020.31;5089565;28;19913;-86
2023/01/10 09:10:15;;;;;;;;;;;;;;;9.69;74.92;101029.03;5089347;28;20371;-86
2023/01/10 09:12:53;;;;;;;;;;;;;;;9.78;74.81;101030.53;5080841;28;19956;-84
2023/01/10 09:15:19;;;;;;;;;;;;;;;9.76;74.96;101029.53;5078296;28;19916;-85
2023/01/10 09:17:44;;;;;;;;;;;;;;;9.75;74.99;101017.28;5073732;28;20345;-84
2023/01/10 09:20:10;;;;;;;;;;;;;;;9.76;74.95;101010.38;5072915;28;20330;-84
2023/01/10 09:22:38;;;;;;;;;;;;;;;9.72;74.67;101003.16;5052543;28;20424;-84
2023/01/10 09:25:05;;;;;;;;;;;;;;;9.71;74.92;101002.25;5088674;28;19917;-86
2023/01/10 09:27:30;;;;;;;;;;;;;;;9.76;74.88;100993.00;5072005;28;19955;-87
2023/01/10 09:29:56;;;;;;;;;;;;;;;9.74;74.87;100996.34;5084917;28;19963;-87
2023/01/10 09:32:21;;;;;;;;;;;;;;;9.71;74.75;100991.81;5073305;28;20464;-86
2023/01/10 09:34:47;;;;;;;;;;;;;;;9.69;75.27;100987.31;5079309;28;20420;-86
2023/01/10 09:37:12;;;;;;;;;;;;;;;9.69;75.27;100972.56;5088988;28;20053;-86
2023/01/10 09:39:37;;;;;;;;;;;;;;;9.68;75.16;100976.00;5073104;28;19916;-86
2023/01/10 09:42:05;;;;;;;;;;;;;;;9.67;75.46;100979.44;5088933;28;20368;-84
2023/01/10 09:44:57;;;;;;;;;;;;;;;9.66;75.30;100980.22;5094434;28;20340;-86
2023/01/10 09:47:28;;;;;;;;;;;;;;;9.74;75.42;100983.31;5046060;28;19939;-85
2023/01/10 09:50:05;;;;;;;;;;;;;;;9.77;75.13;100986.09;5082201;28;19916;-84
2023/01/10 09:52:32;;;;;;;;;;;;;;;9.72;75.59;100983.19;5102186;28;20328;-84
2023/01/10 09:54:57;;;;;;;;;;;;;;;9.72;75.61;100975.38;5089649;28;20371;-85
2023/01/10 09:57:23;;;;;;;;;;;;;;;9.75;75.20;100982.47;5090496;28;19913;-84
2023/01/10 09:59:50;;;;;;;;;;;;;;;9.71;75.44;100976.16;5088367;28;20306;-85
2023/01/10 10:02:21;;;;;;;;;;;;;;;9.71;75.62;100983.09;5088191;28;19952;-84
2023/01/10 10:04:54;;;;;;;;;;;;;;;9.72;75.54;100975.38;5073023;28;19913;-84
2023/01/10 10:07:19;;;;;;;;;;;;;;;9.69;75.61;100980.38;5094255;28;19982;-84
2023/01/10 10:09:45;;;;;;;;;;;;;;;9.69;75.26;100969.97;5072199;28;19952;-84
2023/01/10 10:12:20;;;;;;;;;;;;;;;9.72;75.51;100970.16;5087856;28;20390;-86
2023/01/10 10:14:48;;;;;;;;;;;;;;;9.70;75.17;100961.34;5087820;28;19919;-86
2023/01/10 10:17:34;;;;;;;;;;;;;;;9.72;75.30;100961.44;5087258;28;20393;-83
2023/01/10 10:20:17;;;;;;;;;;;;;;;9.71;75.09;100950.09;5053272;28;19921;-86
2023/01/10 10:22:49;;;;;;;;;;;;;;;9.72;75.08;100940.59;5072036;28;19916;-86
2023/01/10 10:25:33;;;;;;;;;;;;;;;9.72;75.38;100940.59;5087687;28;19916;-86
2023/01/10 10:28:30;;;;;;;;;;;;;;;9.74;75.03;100931.16;5087260;28;19966;-86
2023/01/10 10:31:14;;;;;;;;;;;;;;;9.72;75.73;100918.00;5048028;28;19912;-86
2023/01/10 10:33:58;;;;;;;;;;;;;;;9.73;75.41;100916.28;5072034;28;19935;-86
2023/01/10 10:36:24;;;;;;;;;;;;;;;9.71;75.60;100907.47;5076762;28;19913;-86
2023/01/10 10:38:50;;;;;;;;;;;;;;;9.72;75.58;100901.47;5087483;28;19924;-86
2023/01/10 10:41:37;;;;;;;;;;;;;;;9.70;75.76;100911.81;5087657;28;19912;-86
2023/01/10 10:44:07;;;;;;;;;;;;;;;9.74;75.56;100911.19;5095855;28;19944;-86
2023/01/10 10:46:33;;;;;;;;;;;;;;;9.75;74.98;100905.13;5072498;28;19920;-86
2023/01/10 10:49:18;;;;;;;;;;;;;;;9.77;75.02;100900.03;5086341;28;19924;-85
2023/01/10 10:51:46;;;;;;;;;;;;;;;9.75;75.33;100909.47;5070335;28;19916;-86
2023/01/10 10:54:13;;;;;;;;;;;;;;;9.73;75.23;100906.75;5087787;28;19919;-86
2023/01/10 10:56:38;;;;;;;;;;;;;;;9.75;75.13;100906.84;5092719;28;19927;-86
2023/01/10 10:59:04;;;;;;;;;;;;;;;9.74;75.28;100897.25;5087350;28;19924;-87
2023/01/10 11:01:29;;;;;;;;;;;;;;;9.77;75.16;100897.41;5087531;28;20389;-86
2023/01/10 11:03:56;;;;;;;;;;;;;;;9.75;75.06;100888.59;5087658;28;20396;-86
2023/01/10 11:06:23;;;;;;;;;;;;;;;9.74;75.23;100884.22;5087443;28;19956;-86
2023/01/10 11:08:49;;;;;;;;;;;;;;;9.71;75.66;100873.56;5070218;28;19920;-86
2023/01/10 11:11:34;;;;;;;;;;;;;;;9.78;75.13;100880.97;5080525;28;19916;-85
2023/01/10 11:14:01;;;;;;;;;;;;;;;9.71;75.59;100884.91;5070864;28;19948;-86
2023/01/10 11:16:31;;;;;;;;;;;;;;;9.71;75.89;100873.56;5087156;28;19919;-86
2023/01/10 11:19:18;;;;;;;;;;;;;;;9.70;75.66;100875.28;5071317;28;20332;-86
2023/01/10 11:21:53;;;;;;;;;;;;;;;9.79;75.27;100875.81;5073322;28;19967;-86
2023/01/10 11:24:23;;;;;;;;;;;;;;;9.75;75.61;100854.69;5083498;28;19973;-87
2023/01/10 11:26:48;;;;;;;;;;;;;;;9.74;75.88;100859.03;5086747;28;19919;-87
2023/01/10 11:29:37;;;;;;;;;;;;;;;9.77;75.65;100859.19;5069848;28;19916;-88
2023/01/10 11:32:19;;;;;;;;;;;;;;;9.78;75.39;100849.69;5049665;28;19918;-84
2023/01/10 11:35:03;;;;;;;;;;;;;;;9.79;75.11;100851.47;5086567;28;19963;-85
2023/01/10 11:37:31;;;;;;;;;;;;;;;9.75;75.57;100831.22;5071015;28;19966;-85
2023/01/10 11:40:08;;;;;;;;;;;;;;;9.73;75.69;100843.28;5086407;28;19916;-85
2023/01/10 11:42:34;;;;;;;;;;;;;;;9.77;75.39;100837.44;5070878;28;19970;-85
2023/01/10 11:45:18;;;;;;;;;;;;;;;9.75;75.60;100829.50;5066123;28;20306;-86
2023/01/10 11:47:44;;;;;;;;;;;;;;;9.78;75.61;100823.59;5081233;28;19919;-85
2023/01/10 11:50:10;;;;;;;;;;;;;;;9.78;75.49;100823.59;5070273;28;20378;-86
2023/01/10 11:52:35;;;;;;;;;;;;;;;9.76;75.42;100828.72;5089331;28;19919;-87
2023/01/10 11:55:01;;;;;;;;;;;;;;;9.77;75.14;100833.09;5069528;28;19913;-87
2023/01/10 11:57:27;;;;;;;;;;;;;;;9.76;75.27;100830.44;5071868;28;19912;-88
2023/01/10 11:59:54;;;;;;;;;;;;;;;9.78;75.13;100821.88;5090955;28;19927;-89
2023/01/10 12:02:22;;;;;;;;;;;;;;;9.79;75.43;100821.06;5069626;28;19917;-88
2023/01/10 12:04:47;;;;;;;;;;;;;;;9.79;75.13;100831.50;5071213;28;19913;-88
2023/01/10 12:07:13;;;;;;;;;;;;;;;9.81;75.28;100828.97;5069386;28;20412;-88
2023/01/10 12:09:43;;;;;;;;;;;;;;;9.79;75.52;100818.44;5086492;28;20386;-87
2023/01/10 12:12:22;;;;;;;;;;;;;;;9.82;75.43;100822.03;5083770;28;19917;-86
2023/01/10 12:14:48;;;;;;;;;;;;;;;9.79;75.33;100810.63;5094198;28;19919;-86
2023/01/10 12:17:27;;;;;;;;;;;;;;;9.78;75.32;100819.28;5086065;28;19916;-86
2023/01/10 12:19:54;;;;;;;;;;;;;;;9.79;75.53;100800.19;5070880;28;20003;-85
2023/01/10 12:22:26;;;;;;;;;;;;;;;9.79;75.15;100808.03;5087323;28;19923;-86
2023/01/10 12:24:51;;;;;;;;;;;;;;;9.80;75.32;100816.75;5086058;28;19918;-86
2023/01/10 12:27:17;;;;;;;;;;;;;;;9.79;75.55;100799.31;5069333;28;19912;-86
2023/01/10 12:29:44;;;;;;;;;;;;;;;9.79;75.22;100800.19;5052606;28;20348;-86
2023/01/10 12:32:30;;;;;;;;;;;;;;;9.81;75.33;100802.91;5086168;28;19955;-86
2023/01/10 12:34:57;;;;;;;;;;;;;;;9.82;75.29;100795.97;5090418;28;19974;-86
2023/01/10 12:37:28;;;;;;;;;;;;;;;9.81;75.49;100802.00;5090114;28;19954;-86
2023/01/10 12:40:13;;;;;;;;;;;;;;;9.82;75.40;100803.78;5080709;28;20025;-86
2023/01/10 12:45:32;;;;;;;;;;;;;;;9.83;75.51;100801.28;5064611;28;19962;-86
2023/01/10 12:48:11;;;;;;;;;;;;;;;9.82;75.05;100796.88;5054213;28;20006;-87
2023/01/10 12:50:41;;;;;;;;;;;;;;;9.82;75.14;100788.16;5086123;28;19913;-87
2023/01/10 12:53:22;;;;;;;;;;;;;;;9.85;75.22;100785.72;5068539;28;19917;-85
2023/01/10 12:55:47;;;;;;;;;;;;;;;9.86;75.15;100796.22;5073015;28;20017;-86
2023/01/10 12:58:20;;;;;;;;;;;;;;;9.85;75.35;100796.16;5052608;28;20413;-86